Time;durP1;ratioP1;P1;durP2;ratioP2;P2;SDS_P1;SDS_P2;PMS_P1;PMS_P2;Temp;Humidity;BMP_temperature;BMP_pressure;BME280_temperature;BME280_humidity;BME280_pressure;Samples;Min_cycle;Max_cycle;Signal;HPM_P1;HPM_P2
2021/08/17 00:02:20;;;;;;;0.95;0.75;;;;;;;;;;5138750;27;20498;-66
2021/08/17 00:05:06;;;;;;;1.10;0.50;;;;;;;;;;5141126;27;20047;-66
2021/08/17 00:07:50;;;;;;;3.53;0.75;;;;;;;;;;5142062;27;20039;-66
2021/08/17 00:10:34;;;;;;;4.18;0.60;;;;;;;;;;5142165;27;20031;-65
2021/08/17 00:13:20;;;;;;;0.85;0.40;;;;;;;;;;5135793;27;20039;-66
2021/08/17 00:16:04;;;;;;;1.10;0.73;;;;;;;;;;5142061;27;20043;-66
2021/08/17 00:18:49;;;;;;;;;;;;;;;;;;5141925;27;20027;-65
2021/08/17 00:21:33;;;;;;;3.55;1.77;;;;;;;;;;5140522;27;20013;-66
2021/08/17 00:24:18;;;;;;;6.07;1.58;;;;;;;;;;5139038;27;20035;-63
2021/08/17 00:27:02;;;;;;;5.30;1.50;;;;;;;;;;5136355;27;20375;-66
2021/08/17 00:29:47;;;;;;;6.47;2.00;;;;;;;;;;5140926;27;20039;-65
2021/08/17 00:32:32;;;;;;;4.55;1.70;;;;;;;;;;5137508;27;20035;-65
2021/08/17 00:35:16;;;;;;;2.22;1.13;;;;;;;;;;5141579;27;20039;-64
2021/08/17 00:38:02;;;;;;;3.88;1.27;;;;;;;;;;5139419;27;20035;-64
2021/08/17 00:40:48;;;;;;;5.47;1.38;;;;;;;;;;5135815;27;20498;-65
2021/08/17 00:43:32;;;;;;;1.60;1.02;;;;;;;;;;5126455;27;20040;-65
2021/08/17 00:46:16;;;;;;;2.28;1.23;;;;;;;;;;5121004;28;20035;-65
2021/08/17 00:49:01;;;;;;;5.40;1.60;;;;;;;;;;5120732;28;20403;-65
2021/08/17 00:51:45;;;;;;;1.60;1.27;;;;;;;;;;5119131;28;20027;-65
2021/08/17 00:54:29;;;;;;;;;;;;;;;;;;5121140;28;20472;-66
2021/08/17 00:57:13;;;;;;;4.28;1.20;;;;;;;;;;5120746;28;20397;-66
2021/08/17 00:59:58;;;;;;;2.22;1.52;;;;;;;;;;5120615;28;20035;-65
2021/08/17 01:02:42;;;;;;;;;;;;;;;;;;5115450;28;20043;-65
2021/08/17 01:05:28;;;;;;;3.25;1.00;;;;;;;;;;5117457;28;20394;-65
2021/08/17 01:08:12;;;;;;;2.78;1.50;;;;;;;;;;5120540;28;20031;-65
2021/08/17 01:10:57;;;;;;;5.90;1.30;;;;;;;;;;5120286;28;20040;-65
2021/08/17 01:13:41;;;;;;;1.73;0.90;;;;;;;;;;5126842;27;20031;-65
2021/08/17 01:16:27;;;;;;;3.05;1.02;;;;;;;;;;5140804;27;20043;-65
2021/08/17 01:19:13;;;;;;;2.30;1.00;;;;;;;;;;5140779;27;20035;-65
2021/08/17 01:21:58;;;;;;;2.03;1.05;;;;;;;;;;5123465;27;20040;-65
2021/08/17 01:24:44;;;;;;;1.75;0.90;;;;;;;;;;5115652;28;20039;-64
2021/08/17 01:27:28;;;;;;;1.80;1.23;;;;;;;;;;5113428;28;20043;-65
2021/08/17 01:30:13;;;;;;;1.67;0.80;;;;;;;;;;5120177;28;20032;-65
2021/08/17 01:32:58;;;;;;;1.42;0.93;;;;;;;;;;5114841;28;20028;-66
2021/08/17 01:35:43;;;;;;;1.85;0.95;;;;;;;;;;5119963;28;20035;-65
2021/08/17 01:38:28;;;;;;;1.88;0.90;;;;;;;;;;5120022;28;20036;-67
2021/08/17 01:41:14;;;;;;;1.27;0.70;;;;;;;;;;5119342;28;20036;-66
2021/08/17 01:43:58;;;;;;;2.22;1.10;;;;;;;;;;5119936;28;20031;-66
2021/08/17 01:46:43;;;;;;;1.58;1.13;;;;;;;;;;5119790;28;20495;-66
2021/08/17 01:49:27;;;;;;;4.97;1.45;;;;;;;;;;5119677;28;20031;-66
2021/08/17 01:52:12;;;;;;;6.43;1.20;;;;;;;;;;5116697;27;20031;-66
2021/08/17 01:54:57;;;;;;;3.83;1.20;;;;;;;;;;5119591;28;20036;-65
2021/08/17 01:57:41;;;;;;;7.68;1.80;;;;;;;;;;5116116;28;20035;-65
2021/08/17 02:00:25;;;;;;;5.15;1.35;;;;;;;;;;5138153;27;20440;-65
2021/08/17 02:03:10;;;;;;;2.05;1.42;;;;;;;;;;5134119;27;20039;-66
2021/08/17 02:05:54;;;;;;;3.15;1.52;;;;;;;;;;5140006;27;20039;-66
2021/08/17 02:08:38;;;;;;;2.30;1.33;;;;;;;;;;5126702;27;20032;-66
2021/08/17 02:11:24;;;;;;;6.38;1.55;;;;;;;;;;5118458;28;20039;-66
2021/08/17 02:14:08;;;;;;;3.70;1.58;;;;;;;;;;5119055;28;20028;-66
2021/08/17 02:16:53;;;;;;;2.75;1.40;;;;;;;;;;5114566;28;20040;-66
2021/08/17 02:19:39;;;;;;;7.07;2.65;;;;;;;;;;5137602;27;20035;-66
2021/08/17 02:22:24;;;;;;;9.50;2.22;;;;;;;;;;5118976;27;20523;-65
2021/08/17 02:25:09;;;;;;;3.63;1.40;;;;;;;;;;5113648;28;20031;-66
2021/08/17 02:27:53;;;;;;;4.32;1.88;;;;;;;;;;5118616;28;20043;-65
2021/08/17 02:30:37;;;;;;;6.22;2.10;;;;;;;;;;5119123;28;20040;-66
2021/08/17 02:33:22;;;;;;;5.47;1.52;;;;;;;;;;5112663;28;20039;-66
2021/08/17 02:36:08;;;;;;;5.47;1.42;;;;;;;;;;5116710;28;20036;-66
2021/08/17 02:38:53;;;;;;;3.20;1.60;;;;;;;;;;5127031;27;20039;-65
2021/08/17 02:41:40;;;;;;;2.53;1.35;;;;;;;;;;5136410;27;20494;-67
2021/08/17 02:44:26;;;;;;;2.92;1.52;;;;;;;;;;5142737;27;20035;-65
2021/08/17 02:47:10;;;;;;;3.95;1.65;;;;;;;;;;5139234;27;20380;-67
2021/08/17 02:49:56;;;;;;;10.30;1.80;;;;;;;;;;5134524;27;20035;-66
2021/08/17 02:52:41;;;;;;;4.03;1.35;;;;;;;;;;5128540;27;20042;-66
2021/08/17 02:55:26;;;;;;;4.15;2.00;;;;;;;;;;5118985;28;20031;-66
2021/08/17 02:58:11;;;;;;;10.95;1.38;;;;;;;;;;5118872;28;20483;-67
2021/08/17 03:00:56;;;;;;;6.07;1.48;;;;;;;;;;5118848;28;20039;-66
2021/08/17 03:03:40;;;;;;;5.53;1.50;;;;;;;;;;5118694;28;20040;-66
2021/08/17 03:06:24;;;;;;;2.22;1.20;;;;;;;;;;5124370;27;20031;-66
2021/08/17 03:09:09;;;;;;;3.25;1.50;;;;;;;;;;5139395;27;20039;-65
2021/08/17 03:11:53;;;;;;;6.28;1.42;;;;;;;;;;5117506;27;20036;-66
2021/08/17 03:14:37;;;;;;;6.18;1.40;;;;;;;;;;5118818;28;20470;-66
2021/08/17 03:17:21;;;;;;;5.72;1.45;;;;;;;;;;5118760;28;20487;-66
2021/08/17 03:20:06;;;;;;;10.95;2.33;;;;;;;;;;5112159;28;20035;-66
2021/08/17 03:22:51;;;;;;;3.00;1.10;;;;;;;;;;5113753;28;20050;-66
2021/08/17 03:25:35;;;;;;;6.20;1.80;;;;;;;;;;5116455;28;20043;-66
2021/08/17 03:28:19;;;;;;;3.55;1.70;;;;;;;;;;5122666;28;20035;-66
2021/08/17 03:31:05;;;;;;;;;;;;;;;;;;5123037;28;20039;-66
2021/08/17 03:33:51;;;;;;;3.50;1.75;;;;;;;;;;5122294;28;19915;-65
2021/08/17 03:36:36;;;;;;;9.27;2.40;;;;;;;;;;5116430;28;20035;-66
2021/08/17 03:39:20;;;;;;;6.88;3.10;;;;;;;;;;5122217;28;20035;-66
2021/08/17 03:42:05;;;;;;;4.65;2.53;;;;;;;;;;5132959;27;20035;-66
2021/08/17 03:44:50;;;;;;;6.80;1.98;;;;;;;;;;5142626;27;20039;-65
2021/08/17 03:47:35;;;;;;;3.35;1.65;;;;;;;;;;5142620;27;20039;-65
2021/08/17 03:50:19;;;;;;;3.97;1.90;;;;;;;;;;5142608;27;20039;-65
2021/08/17 03:53:03;;;;;;;4.47;2.00;;;;;;;;;;5118096;27;20031;-66
2021/08/17 03:55:47;;;;;;;2.72;1.40;;;;;;;;;;5121972;28;20031;-66
2021/08/17 03:58:32;;;;;;;2.83;1.52;;;;;;;;;;5121951;28;20028;-66
2021/08/17 04:01:17;;;;;;;6.25;1.50;;;;;;;;;;5121115;28;20036;-66
2021/08/17 04:04:02;;;;;;;4.30;1.92;;;;;;;;;;5120329;27;20040;-65
2021/08/17 04:06:46;;;;;;;3.85;1.73;;;;;;;;;;5121617;28;20047;-66
2021/08/17 04:09:30;;;;;;;2.90;1.30;;;;;;;;;;5121738;28;20028;-65
2021/08/17 04:12:14;;;;;;;2.55;1.38;;;;;;;;;;5118258;28;20039;-64
2021/08/17 04:14:59;;;;;;;3.78;1.90;;;;;;;;;;5121551;28;20031;-65
2021/08/17 04:17:43;;;;;;;5.57;1.55;;;;;;;;;;5117104;28;20044;-65
2021/08/17 04:20:30;;;;;;;6.47;1.50;;;;;;;;;;5114970;28;20040;-67
2021/08/17 04:23:14;;;;;;;10.55;2.00;;;;;;;;;;5123403;27;20036;-67
2021/08/17 04:25:59;;;;;;;3.70;1.65;;;;;;;;;;5121906;27;20391;-67
2021/08/17 04:28:43;;;;;;;5.50;2.15;;;;;;;;;;5126447;27;20027;-66
2021/08/17 04:31:27;;;;;;;5.40;1.67;;;;;;;;;;5139226;27;20079;-68
2021/08/17 04:34:12;;;;;;;4.13;2.00;;;;;;;;;;5137208;27;20031;-66
2021/08/17 04:36:57;;;;;;;4.57;1.60;;;;;;;;;;5141707;27;20404;-68
2021/08/17 04:39:41;;;;;;;3.20;1.63;;;;;;;;;;5127056;27;20039;-66
2021/08/17 04:42:26;;;;;;;4.25;1.70;;;;;;;;;;5137651;27;20031;-67
2021/08/17 04:45:10;;;;;;;4.75;1.67;;;;;;;;;;5125350;27;20039;-67
2021/08/17 04:47:55;;;;;;;6.82;2.67;;;;;;;;;;5133496;27;20514;-67
2021/08/17 04:50:39;;;;;;;8.35;2.45;;;;;;;;;;5133084;27;20027;-67
2021/08/17 04:53:23;;;;;;;13.55;2.80;;;;;;;;;;5123181;27;20024;-67
2021/08/17 04:56:07;;;;;;;6.07;1.70;;;;;;;;;;5122121;27;20046;-67
2021/08/17 04:58:52;;;;;;;6.35;2.17;;;;;;;;;;5137290;27;20475;-67
2021/08/17 05:01:37;;;;;;;9.95;2.47;;;;;;;;;;5135815;27;20035;-67
2021/08/17 05:04:21;;;;;;;9.68;2.10;;;;;;;;;;5130857;27;20028;-67
2021/08/17 05:07:07;;;;;;;3.45;1.73;;;;;;;;;;5120510;28;20035;-66
2021/08/17 05:09:51;;;;;;;4.43;2.15;;;;;;;;;;5120401;28;20491;-66
2021/08/17 05:12:35;;;;;;;8.27;2.28;;;;;;;;;;5116068;28;20031;-66
2021/08/17 05:15:21;;;;;;;2.63;1.70;;;;;;;;;;5126206;27;20035;-67
2021/08/17 05:18:05;;;;;;;6.95;1.88;;;;;;;;;;5140985;27;20035;-67
2021/08/17 05:20:50;;;;;;;7.65;2.05;;;;;;;;;;5134315;27;20039;-67
2021/08/17 05:23:34;;;;;;;4.43;1.95;;;;;;;;;;5138486;27;20043;-67
2021/08/17 05:26:19;;;;;;;4.57;2.05;;;;;;;;;;5121873;27;20043;-67
2021/08/17 05:29:03;;;;;;;6.47;1.45;;;;;;;;;;5125514;27;20379;-67
2021/08/17 05:31:47;;;;;;;23.50;2.65;;;;;;;;;;5138109;27;20035;-65
2021/08/17 05:34:34;;;;;;;9.88;1.90;;;;;;;;;;5122275;27;20055;-67
2021/08/17 05:37:19;;;;;;;5.05;1.98;;;;;;;;;;5119646;27;20040;-67
2021/08/17 05:40:04;;;;;;;5.93;1.92;;;;;;;;;;5119983;28;20035;-67
2021/08/17 05:42:48;;;;;;;11.25;3.05;;;;;;;;;;5114845;28;20035;-67
2021/08/17 05:45:33;;;;;;;7.90;2.22;;;;;;;;;;5129301;27;20039;-67
2021/08/17 05:48:18;;;;;;;3.88;1.90;;;;;;;;;;5132259;27;20407;-66
2021/08/17 05:51:02;;;;;;;25.15;3.50;;;;;;;;;;5124837;27;20495;-66
2021/08/17 05:53:47;;;;;;;13.57;2.08;;;;;;;;;;5135887;27;20093;-66
2021/08/17 05:56:32;;;;;;;15.38;2.03;;;;;;;;;;5137668;27;20050;-68
2021/08/17 05:59:17;;;;;;;5.65;1.92;;;;;;;;;;5137118;27;20039;-67
2021/08/17 06:02:02;;;;;;;8.85;2.40;;;;;;;;;;5137344;27;20039;-67
2021/08/17 06:04:46;;;;;;;4.47;1.92;;;;;;;;;;5131658;27;20035;-67
2021/08/17 06:07:30;;;;;;;7.20;1.65;;;;;;;;;;5126941;27;20039;-68
2021/08/17 06:10:15;;;;;;;10.18;2.60;;;;;;;;;;5116284;28;20032;-67
2021/08/17 06:13:00;;;;;;;6.65;2.00;;;;;;;;;;5113800;28;20047;-67
2021/08/17 06:15:44;;;;;;;6.80;2.25;;;;;;;;;;5124644;27;20032;-67
2021/08/17 06:18:29;;;;;;;11.35;2.85;;;;;;;;;;5122129;27;20038;-67
2021/08/17 06:21:13;;;;;;;3.90;1.73;;;;;;;;;;5127320;27;20031;-67
2021/08/17 06:23:58;;;;;;;4.93;1.70;;;;;;;;;;5134277;27;20498;-67
2021/08/17 06:26:42;;;;;;;4.32;1.80;;;;;;;;;;5135113;27;20035;-67
2021/08/17 06:29:26;;;;;;;;;;;;;;;;;;5120619;28;20043;-68
2021/08/17 06:32:12;;;;;;;10.18;1.88;;;;;;;;;;5127808;27;19942;-68
2021/08/17 06:34:56;;;;;;;;;;;;;;;;;;5127462;27;20519;-68
2021/08/17 06:37:40;;;;;;;16.13;2.33;;;;;;;;;;5133709;27;19931;-67
2021/08/17 06:40:25;;;;;;;15.85;2.60;;;;;;;;;;5132602;27;20051;-68
2021/08/17 06:43:10;;;;;;;7.88;1.55;;;;;;;;;;5133784;27;20043;-68
2021/08/17 06:45:55;;;;;;;5.35;1.45;;;;;;;;;;5135106;27;20040;-68
2021/08/17 06:48:39;;;;;;;2.58;1.00;;;;;;;;;;5123199;27;20031;-68
2021/08/17 06:51:23;;;;;;;11.85;1.92;;;;;;;;;;5116557;28;20031;-71
2021/08/17 06:54:08;;;;;;;7.07;1.30;;;;;;;;;;5114743;28;20043;-71
2021/08/17 06:56:53;;;;;;;7.00;1.35;;;;;;;;;;5112324;28;20031;-72
2021/08/17 06:59:37;;;;;;;6.00;1.60;;;;;;;;;;5117791;27;20039;-72
2021/08/17 07:02:21;;;;;;;10.20;4.47;;;;;;;;;;5130334;27;20035;-71
2021/08/17 07:05:05;;;;;;;;;;;;;;;;;;5138296;27;20486;-71
2021/08/17 07:07:50;;;;;;;6.53;3.13;;;;;;;;;;5143481;27;19918;-72
2021/08/17 07:10:34;;;;;;;;;;;;;;;;;;5143910;27;20035;-72
2021/08/17 07:13:19;;;;;;;14.13;2.95;;;;;;;;;;5136468;27;19993;-70
2021/08/17 07:16:03;;;;;;;12.88;4.32;;;;;;;;;;5143253;27;20035;-71
2021/08/17 07:18:48;;;;;;;6.90;3.42;;;;;;;;;;5142822;27;20052;-71
2021/08/17 07:21:32;;;;;;;9.50;3.90;;;;;;;;;;5142043;27;20035;-72
2021/08/17 07:24:16;;;;;;;10.93;3.33;;;;;;;;;;5143007;27;20403;-72
2021/08/17 07:27:01;;;;;;;;;;;;;;;;;;5138095;27;20039;-71
2021/08/17 07:29:45;;;;;;;9.90;3.33;;;;;;;;;;5143067;27;19914;-71
2021/08/17 07:32:29;;;;;;;5.78;2.60;;;;;;;;;;5139117;27;20032;-71
2021/08/17 07:35:13;;;;;;;;;;;;;;;;;;5143600;27;20031;-72
2021/08/17 07:37:58;;;;;;;10.63;3.00;;;;;;;;;;5143022;27;19918;-71
2021/08/17 07:40:43;;;;;;;6.60;2.30;;;;;;;;;;5142721;27;20046;-71
2021/08/17 07:43:27;;;;;;;6.45;2.38;;;;;;;;;;5136131;27;20047;-71
2021/08/17 07:46:11;;;;;;;;;;;;;;;;;;5143135;27;20027;-72
2021/08/17 07:48:56;;;;;;;5.03;2.63;;;;;;;;;;5142781;27;20409;-72
2021/08/17 07:51:41;;;;;;;7.40;2.63;;;;;;;;;;5140996;27;20384;-70
2021/08/17 07:54:27;;;;;;;5.75;2.60;;;;;;;;;;5142839;27;20031;-71
2021/08/17 07:57:12;;;;;;;7.07;2.28;;;;;;;;;;5142542;27;20031;-72
2021/08/17 07:59:57;;;;;;;3.33;1.48;;;;;;;;;;5142436;27;20392;-72
2021/08/17 08:02:42;;;;;;;6.30;1.98;;;;;;;;;;5137903;27;20035;-71
2021/08/17 08:05:26;;;;;;;3.08;1.65;;;;;;;;;;5142346;27;20039;-72
2021/08/17 08:08:12;;;;;;;6.93;1.70;;;;;;;;;;5142303;27;20039;-72
2021/08/17 08:10:56;;;;;;;;;;;;;;;;;;5142187;27;20110;-72
2021/08/17 08:13:40;;;;;;;5.70;2.47;;;;;;;;;;5142339;27;19930;-72
2021/08/17 08:16:27;;;;;;;4.03;1.58;;;;;;;;;;5142152;27;20031;-72
2021/08/17 08:19:11;;;;;;;3.60;1.48;;;;;;;;;;5142188;27;20031;-72
2021/08/17 08:21:56;;;;;;;4.43;2.13;;;;;;;;;;5139639;27;20031;-72
2021/08/17 08:24:40;;;;;;;3.25;1.60;;;;;;;;;;5142011;27;20035;-72
2021/08/17 08:27:24;;;;;;;;;;;;;;;;;;5135842;27;20043;-72
2021/08/17 08:30:09;;;;;;;5.87;1.70;;;;;;;;;;5142011;27;19969;-72
2021/08/17 08:32:54;;;;;;;4.57;1.95;;;;;;;;;;5136643;27;20027;-72
2021/08/17 08:35:38;;;;;;;;;;;;;;;;;;5142269;27;20039;-72
2021/08/17 08:38:22;;;;;;;3.50;1.30;;;;;;;;;;5141694;27;19914;-72
2021/08/17 08:41:07;;;;;;;;;;;;;;;;;;5142150;27;20047;-72
2021/08/17 08:43:51;;;;;;;2.63;1.25;;;;;;;;;;5141590;27;19914;-70
2021/08/17 08:46:36;;;;;;;2.28;1.13;;;;;;;;;;5141600;27;20039;-72
2021/08/17 08:49:20;;;;;;;;;;;;;;;;;;5141966;27;20035;-72
2021/08/17 08:52:06;;;;;;;4.10;1.20;;;;;;;;;;5138826;27;19914;-72
2021/08/17 08:54:50;;;;;;;4.78;1.13;;;;;;;;;;5141281;27;20693;-72
2021/08/17 08:57:34;;;;;;;;;;;;;;;;;;5141814;27;20035;-70
2021/08/17 09:00:19;;;;;;;4.30;1.25;;;;;;;;;;5141481;27;19915;-71
2021/08/17 09:03:03;;;;;;;2.65;1.15;;;;;;;;;;5135715;27;20039;-72
2021/08/17 09:05:52;;;;;;;2.03;1.20;;;;;;;;;;5141096;27;20046;-71
2021/08/17 09:08:36;;;;;;;2.80;1.40;;;;;;;;;;5141082;27;20372;-72
2021/08/17 09:11:20;;;;;;;;;;;;;;;;;;5140798;27;20039;-72
2021/08/17 09:14:15;;;;;;;2.33;1.00;;;;;;;;;;5141066;27;20274;-72
2021/08/17 09:17:10;;;;;;;3.13;1.27;;;;;;;;;;5140926;27;20034;-72
2021/08/17 09:19:55;;;;;;;2.95;1.25;;;;;;;;;;5140992;27;20031;-73
2021/08/17 09:22:42;;;;;;;5.63;1.23;;;;;;;;;;5135592;27;20035;-71
2021/08/17 09:25:33;;;;;;;5.38;1.95;;;;;;;;;;5139850;27;20034;-72
2021/08/17 09:28:24;;;;;;;5.90;1.35;;;;;;;;;;5140758;27;20031;-72
2021/08/17 09:31:27;;;;;;;4.05;1.00;;;;;;;;;;5140514;27;20403;-72
2021/08/17 09:34:12;;;;;;;1.77;1.10;;;;;;;;;;5140668;27;20027;-72
2021/08/17 09:36:56;;;;;;;;;;;;;;;;;;5140936;27;20043;-71
2021/08/17 09:39:48;;;;;;;7.72;1.20;;;;;;;;;;5140602;27;19915;-73
2021/08/17 09:42:33;;;;;;;4.30;1.23;;;;;;;;;;5136429;27;20031;-72
2021/08/17 09:45:18;;;;;;;6.47;1.30;;;;;;;;;;5140474;27;20043;-72
2021/08/17 09:48:03;;;;;;;2.45;1.30;;;;;;;;;;5140282;27;20035;-72
2021/08/17 09:50:47;;;;;;;6.32;1.45;;;;;;;;;;5140427;27;20031;-72
2021/08/17 09:53:31;;;;;;;4.50;1.45;;;;;;;;;;5133292;27;20494;-73
2021/08/17 09:56:25;;;;;;;3.25;1.50;;;;;;;;;;5140272;27;20031;-73
2021/08/17 09:59:18;;;;;;;3.08;1.30;;;;;;;;;;5140378;27;20035;-73
2021/08/17 10:02:03;;;;;;;6.88;1.50;;;;;;;;;;5137499;27;20482;-73
2021/08/17 10:04:51;;;;;;;5.57;1.63;;;;;;;;;;5140050;27;20372;-72
2021/08/17 10:07:35;;;;;;;4.03;1.75;;;;;;;;;;5140007;27;20379;-72
2021/08/17 10:10:21;;;;;;;4.80;1.58;;;;;;;;;;5140004;27;20035;-72
2021/08/17 10:13:09;;;;;;;4.10;1.55;;;;;;;;;;5134398;27;20382;-72
2021/08/17 10:15:53;;;;;;;3.15;1.30;;;;;;;;;;5139953;27;20027;-72
2021/08/17 10:18:40;;;;;;;5.90;1.55;;;;;;;;;;5139972;27;20043;-73
2021/08/17 10:21:25;;;;;;;2.25;0.90;;;;;;;;;;5139044;27;20042;-72
2021/08/17 10:24:27;;;;;;;7.88;1.45;;;;;;;;;;5139798;27;20038;-72
2021/08/17 10:27:18;;;;;;;8.00;1.23;;;;;;;;;;5133887;27;20039;-73
2021/08/17 10:30:09;;;;;;;2.53;1.20;;;;;;;;;;5139727;27;20035;-72
2021/08/17 10:32:55;;;;;;;9.60;1.35;;;;;;;;;;5134697;27;20027;-72
2021/08/17 10:35:49;;;;;;;1.85;0.98;;;;;;;;;;5146579;27;20035;-72
2021/08/17 10:38:34;;;;;;;1.90;1.10;;;;;;;;;;5146725;27;20031;-72
2021/08/17 10:41:23;;;;;;;6.40;1.50;;;;;;;;;;5139860;27;20038;-72
2021/08/17 10:44:09;;;;;;;3.80;1.20;;;;;;;;;;5146574;27;20039;-72
2021/08/17 10:47:04;;;;;;;2.42;1.00;;;;;;;;;;5146435;27;20039;-72
2021/08/17 10:49:50;;;;;;;5.57;1.65;;;;;;;;;;5146514;27;20027;-71
2021/08/17 10:52:35;;;;;;;1.77;0.75;;;;;;;;;;5142268;27;20482;-73
2021/08/17 10:55:23;;;;;;;1.73;0.95;;;;;;;;;;5146502;27;20375;-73
2021/08/17 10:58:09;;;;;;;6.20;1.20;;;;;;;;;;5146388;27;20046;-73
2021/08/17 11:00:57;;;;;;;1.45;0.90;;;;;;;;;;5146522;27;20031;-73
2021/08/17 11:03:43;;;;;;;3.47;1.17;;;;;;;;;;5146337;27;20039;-72
2021/08/17 11:06:34;;;;;;;5.55;1.65;;;;;;;;;;5146339;27;20039;-72
2021/08/17 11:09:25;;;;;;;3.45;1.55;;;;;;;;;;5146546;27;20483;-72
2021/08/17 11:12:10;;;;;;;5.05;0.85;;;;;;;;;;5143329;27;20027;-70
2021/08/17 11:14:55;;;;;;;4.25;1.50;;;;;;;;;;5146367;27;20503;-72
2021/08/17 11:17:39;;;;;;;3.42;1.25;;;;;;;;;;5146293;27;20483;-72
2021/08/17 11:20:24;;;;;;;5.10;1.50;;;;;;;;;;5139354;27;20051;-72
2021/08/17 11:23:17;;;;;;;4.57;1.33;;;;;;;;;;5140308;27;20043;-72
2021/08/17 11:26:07;;;;;;;2.83;1.27;;;;;;;;;;5139224;27;20478;-71
2021/08/17 11:28:52;;;;;;;3.22;1.20;;;;;;;;;;5130492;27;20043;-72
2021/08/17 11:31:45;;;;;;;5.50;1.10;;;;;;;;;;5139233;27;20039;-72
2021/08/17 11:34:32;;;;;;;3.58;1.25;;;;;;;;;;5146029;27;20502;-72
2021/08/17 11:37:16;;;;;;;6.18;1.30;;;;;;;;;;5139229;27;20034;-72
2021/08/17 11:40:03;;;;;;;3.35;1.50;;;;;;;;;;5139356;27;20368;-72
2021/08/17 11:42:50;;;;;;;1.17;1.05;;;;;;;;;;5139111;27;20387;-72
2021/08/17 11:45:39;;;;;;;3.45;1.48;;;;;;;;;;5143635;27;20039;-73
2021/08/17 11:48:24;;;;;;;2.33;1.02;;;;;;;;;;5135821;27;20035;-73
2021/08/17 11:51:09;;;;;;;2.08;1.60;;;;;;;;;;5135653;27;20035;-73
2021/08/17 11:53:54;;;;;;;4.97;1.35;;;;;;;;;;5135768;27;20043;-72
2021/08/17 11:56:39;;;;;;;3.10;1.63;;;;;;;;;;5135616;27;20031;-73
2021/08/17 11:59:24;;;;;;;2.85;1.25;;;;;;;;;;5127292;27;20042;-72
2021/08/17 12:02:10;;;;;;;3.42;1.33;;;;;;;;;;5135456;27;20039;-73
2021/08/17 12:04:56;;;;;;;2.45;1.33;;;;;;;;;;5135503;27;20043;-72
2021/08/17 12:07:41;;;;;;;3.80;1.50;;;;;;;;;;5135338;27;20039;-72
2021/08/17 12:10:25;;;;;;;3.83;1.20;;;;;;;;;;5135436;27;20035;-73
2021/08/17 12:13:09;;;;;;;2.45;1.20;;;;;;;;;;5135237;27;20035;-72
2021/08/17 12:15:58;;;;;;;2.47;1.60;;;;;;;;;;5119888;27;20035;-72
2021/08/17 12:18:42;;;;;;;8.43;1.33;;;;;;;;;;5135150;27;20035;-71
2021/08/17 12:21:27;;;;;;;7.60;1.60;;;;;;;;;;5135185;27;20043;-72
2021/08/17 12:24:21;;;;;;;7.47;1.60;;;;;;;;;;5119588;27;20039;-73
2021/08/17 12:27:06;;;;;;;6.18;1.38;;;;;;;;;;5134963;27;20047;-73
2021/08/17 12:29:51;;;;;;;4.50;1.15;;;;;;;;;;5135083;27;20039;-73
2021/08/17 12:32:35;;;;;;;7.30;1.50;;;;;;;;;;5134890;27;20039;-73
2021/08/17 12:35:30;;;;;;;4.68;1.35;;;;;;;;;;5135007;27;20035;-73
2021/08/17 12:38:18;;;;;;;2.92;1.45;;;;;;;;;;5126192;27;20411;-72
2021/08/17 12:41:03;;;;;;;3.00;1.30;;;;;;;;;;5134861;27;20031;-73
2021/08/17 12:43:47;;;;;;;3.00;1.67;;;;;;;;;;5126106;27;20486;-73
2021/08/17 12:46:32;;;;;;;2.03;1.10;;;;;;;;;;5134991;27;20027;-74
2021/08/17 12:49:17;;;;;;;4.50;1.30;;;;;;;;;;5134497;27;20047;-72
2021/08/17 12:52:17;;;;;;;5.05;1.10;;;;;;;;;;5134606;27;20372;-72
2021/08/17 12:55:08;;;;;;;2.92;1.17;;;;;;;;;;5134524;27;20039;-73
2021/08/17 12:57:55;;;;;;;1.58;0.80;;;;;;;;;;5133357;27;20031;-73
2021/08/17 13:00:39;;;;;;;4.20;1.75;;;;;;;;;;5125718;27;20039;-72
2021/08/17 13:03:24;;;;;;;4.43;1.08;;;;;;;;;;5134554;27;20039;-73
2021/08/17 13:06:08;;;;;;;2.92;1.10;;;;;;;;;;5134269;27;20039;-73
2021/08/17 13:08:53;;;;;;;5.20;1.02;;;;;;;;;;5134245;27;20039;-72
2021/08/17 13:11:38;;;;;;;4.90;1.13;;;;;;;;;;5134339;27;20031;-73
2021/08/17 13:14:22;;;;;;;2.70;0.93;;;;;;;;;;5134182;27;20483;-73
2021/08/17 13:17:06;;;;;;;2.30;0.90;;;;;;;;;;5134008;27;20035;-73
2021/08/17 13:19:51;;;;;;;4.93;1.00;;;;;;;;;;5134069;27;20039;-73
2021/08/17 13:22:36;;;;;;;3.92;1.30;;;;;;;;;;5133871;27;20380;-72
2021/08/17 13:25:23;;;;;;;14.95;2.80;;;;;;;;;;5133820;27;20372;-73
2021/08/17 13:28:07;;;;;;;19.25;1.55;;;;;;;;;;5125290;27;20434;-72
2021/08/17 13:30:53;;;;;;;2.60;0.70;;;;;;;;;;5133867;27;20398;-73
2021/08/17 13:33:38;;;;;;;4.75;0.90;;;;;;;;;;5133709;27;20035;-73
2021/08/17 13:36:23;;;;;;;6.45;1.65;;;;;;;;;;5133818;27;20035;-73
2021/08/17 13:39:08;;;;;;;3.40;1.50;;;;;;;;;;5133633;27;20051;-73
2021/08/17 13:41:54;;;;;;;5.07;1.05;;;;;;;;;;5133635;27;20324;-73
2021/08/17 13:44:39;;;;;;;4.85;1.05;;;;;;;;;;5133656;27;20055;-73
2021/08/17 13:47:23;;;;;;;3.17;0.85;;;;;;;;;;5117961;27;20031;-73
2021/08/17 13:50:09;;;;;;;5.55;1.50;;;;;;;;;;5133518;27;20486;-72
2021/08/17 13:52:54;;;;;;;5.70;1.38;;;;;;;;;;5119651;27;20035;-73
2021/08/17 13:55:38;;;;;;;4.82;1.70;;;;;;;;;;5133434;27;20031;-73
2021/08/17 13:58:23;;;;;;;9.20;1.75;;;;;;;;;;5133289;27;20039;-73
2021/08/17 14:01:08;;;;;;;7.90;1.63;;;;;;;;;;5133280;27;20042;-73
2021/08/17 14:03:53;;;;;;;6.97;1.70;;;;;;;;;;5133217;27;20487;-72
2021/08/17 14:06:37;;;;;;;2.67;1.08;;;;;;;;;;5133331;27;20035;-73
2021/08/17 14:09:22;;;;;;;1.92;1.00;;;;;;;;;;5132674;27;20039;-72
2021/08/17 14:12:07;;;;;;;2.67;1.38;;;;;;;;;;5133122;27;20039;-73
2021/08/17 14:14:52;;;;;;;4.80;1.30;;;;;;;;;;5133029;27;20031;-72
2021/08/17 14:17:36;;;;;;;3.50;2.55;;;;;;;;;;5133090;27;20482;-73
2021/08/17 14:20:21;;;;;;;4.95;1.38;;;;;;;;;;5132987;27;20039;-73
2021/08/17 14:23:05;;;;;;;3.38;1.10;;;;;;;;;;5133084;27;20039;-73
2021/08/17 14:25:50;;;;;;;5.30;1.40;;;;;;;;;;5133089;27;20043;-73
2021/08/17 14:28:34;;;;;;;3.00;1.25;;;;;;;;;;5132901;27;20388;-73
2021/08/17 14:31:19;;;;;;;1.30;0.93;;;;;;;;;;5132749;27;20039;-72
2021/08/17 14:34:04;;;;;;;1.88;0.95;;;;;;;;;;5132990;28;20031;-73
2021/08/17 14:36:49;;;;;;;3.75;1.20;;;;;;;;;;5132899;28;20035;-72
2021/08/17 14:39:33;;;;;;;3.10;1.05;;;;;;;;;;5132853;28;20043;-72
2021/08/17 14:42:18;;;;;;;8.82;2.10;;;;;;;;;;5132768;28;20044;-73
2021/08/17 14:45:03;;;;;;;11.10;1.90;;;;;;;;;;5132609;28;20039;-72
2021/08/17 14:47:48;;;;;;;3.95;1.35;;;;;;;;;;5124116;27;20042;-72
2021/08/17 14:50:32;;;;;;;8.52;1.25;;;;;;;;;;5132731;28;20463;-73
2021/08/17 14:53:18;;;;;;;3.58;1.00;;;;;;;;;;5117334;28;20035;-73
2021/08/17 14:56:04;;;;;;;5.35;1.60;;;;;;;;;;5117305;28;20395;-73
2021/08/17 14:58:48;;;;;;;3.05;1.30;;;;;;;;;;5132706;28;20035;-72
2021/08/17 15:01:33;;;;;;;6.03;1.23;;;;;;;;;;5108293;27;20043;-72
2021/08/17 15:04:19;;;;;;;9.88;0.93;;;;;;;;;;5132588;28;20031;-72
2021/08/17 15:07:04;;;;;;;4.20;0.88;;;;;;;;;;5117229;28;20047;-73
2021/08/17 15:09:48;;;;;;;7.35;1.10;;;;;;;;;;5132589;28;20494;-72
2021/08/17 15:12:33;;;;;;;4.53;1.17;;;;;;;;;;5132704;28;20035;-71
2021/08/17 15:15:19;;;;;;;2.55;0.77;;;;;;;;;;5132493;28;20027;-72
2021/08/17 15:18:03;;;;;;;3.63;1.15;;;;;;;;;;5132426;28;20039;-73
2021/08/17 15:20:48;;;;;;;2.40;1.38;;;;;;;;;;5118552;27;20039;-71
2021/08/17 15:23:32;;;;;;;3.13;0.77;;;;;;;;;;5120853;27;20039;-73
2021/08/17 15:26:17;;;;;;;5.47;1.40;;;;;;;;;;5136070;27;20039;-73
2021/08/17 15:29:02;;;;;;;3.90;1.00;;;;;;;;;;5142971;27;20039;-73
2021/08/17 15:31:46;;;;;;;3.33;1.10;;;;;;;;;;5136119;27;20027;-71
2021/08/17 15:34:32;;;;;;;2.38;0.95;;;;;;;;;;5136167;27;20035;-72
2021/08/17 15:37:16;;;;;;;5.32;1.30;;;;;;;;;;5136071;27;20471;-73
2021/08/17 15:40:01;;;;;;;3.13;1.10;;;;;;;;;;5135966;27;20043;-72
2021/08/17 15:42:47;;;;;;;6.28;0.82;;;;;;;;;;5135842;27;20031;-73
2021/08/17 15:45:32;;;;;;;4.65;1.13;;;;;;;;;;5135680;27;20043;-73
2021/08/17 15:48:16;;;;;;;6.25;1.17;;;;;;;;;;5135752;27;20031;-73
2021/08/17 15:51:02;;;;;;;12.00;1.20;;;;;;;;;;5135748;27;20035;-72
2021/08/17 15:53:46;;;;;;;1.63;0.95;;;;;;;;;;5120202;27;20036;-72
2021/08/17 15:56:30;;;;;;;7.32;1.10;;;;;;;;;;5127059;27;20376;-73
2021/08/17 15:59:15;;;;;;;4.30;0.90;;;;;;;;;;5135576;27;20035;-72
2021/08/17 16:01:59;;;;;;;2.80;1.00;;;;;;;;;;5135611;27;20043;-72
2021/08/17 16:04:43;;;;;;;3.25;0.95;;;;;;;;;;5135459;27;20039;-73
2021/08/17 16:07:28;;;;;;;9.23;1.15;;;;;;;;;;5135606;27;20039;-72
2021/08/17 16:10:14;;;;;;;3.08;1.15;;;;;;;;;;5135772;27;20372;-73
2021/08/17 16:12:59;;;;;;;1.92;0.77;;;;;;;;;;5135339;27;20031;-72
2021/08/17 16:15:44;;;;;;;1.30;0.80;;;;;;;;;;5135357;27;20031;-73
2021/08/17 16:18:29;;;;;;;3.15;0.93;;;;;;;;;;5135303;27;20047;-73
2021/08/17 16:21:15;;;;;;;3.55;0.90;;;;;;;;;;5135171;27;20039;-73
2021/08/17 16:24:01;;;;;;;5.25;0.88;;;;;;;;;;5135231;27;20043;-72
2021/08/17 16:26:46;;;;;;;3.30;0.77;;;;;;;;;;5135361;27;20039;-73
2021/08/17 16:29:30;;;;;;;4.82;0.80;;;;;;;;;;5134970;27;20039;-73
2021/08/17 16:32:15;;;;;;;5.93;1.05;;;;;;;;;;5134674;27;20031;-73
2021/08/17 16:35:01;;;;;;;14.32;1.55;;;;;;;;;;5134900;27;20043;-73
2021/08/17 16:37:48;;;;;;;5.90;1.02;;;;;;;;;;5135016;27;20518;-72